Silsden, United Kingdom
Current Conditions -  °F | °C
As of 6:50 PM on Thursday 30 Oct 2014 (Local Time) from EGNM Reporting Station
Scattered Clouds Scattered Clouds  
Wind Chill: 57°   Ceiling: Unl
Heat Index: 57°   Visibility: 6mi
Dew Point: 55°   Wind: 8mph
Humidity: 94%   Direction: 150°SSE
Pressure: 29.97"   Gusts: NA
Location:  53.91°N, 1.94°W
Report Text: EGNM 301850Z 15007KT 130V190 9999 SCT025 SCT042 14/13 Q1015
Loading
Personal Weather Stations






























Interactive Weather Map New forecast layout! Learn more

10-Day Weather Forecast

Advertisements
Track Severe Weather on mobile